Time;durP1;ratioP1;P1;durP2;ratioP2;P2;SDS_P1;SDS_P2;PMS_P1;PMS_P2;Temp;Humidity;BMP_temperature;BMP_pressure;BME280_temperature;BME280_humidity;BME280_pressure;Samples;Min_cycle;Max_cycle;Signal;HPM_P1;HPM_P2
2022/10/13 00:00:34;;;;;;;10.50;5.53;;;12.10;99.90;;;;;;5111448;28;20035;-49
2022/10/13 00:03:02;;;;;;;12.23;5.55;;;12.10;99.90;;;;;;5111567;28;20510;-49
2022/10/13 00:05:29;;;;;;;17.23;7.13;;;12.10;99.90;;;;;;5106434;28;20132;-50
2022/10/13 00:07:56;;;;;;;14.07;6.35;;;12.20;99.90;;;;;;5111396;28;20036;-51
2022/10/13 00:10:23;;;;;;;;;;;12.10;99.90;;;;;;5111889;28;20424;-50
2022/10/13 00:12:50;;;;;;;10.38;4.45;;;12.10;99.90;;;;;;5110648;28;20018;-51
2022/10/13 00:15:20;;;;;;;6.35;3.78;;;12.00;99.90;;;;;;5111012;28;20036;-51
2022/10/13 00:17:47;;;;;;;11.38;4.72;;;11.90;99.90;;;;;;5110546;28;20063;-49
2022/10/13 00:20:13;;;;;;;8.38;4.03;;;11.80;99.90;;;;;;5107780;28;20078;-50
2022/10/13 00:22:40;;;;;;;8.50;4.03;;;11.80;99.90;;;;;;5112301;28;20039;-50
2022/10/13 00:25:07;;;;;;;15.35;4.28;;;11.70;99.90;;;;;;5114410;28;20070;-49
2022/10/13 00:27:34;;;;;;;7.30;4.10;;;11.60;99.90;;;;;;5115813;28;20039;-51
2022/10/13 00:30:01;;;;;;;11.30;3.72;;;11.60;99.90;;;;;;5111240;28;20044;-49
2022/10/13 00:32:28;;;;;;;7.68;3.95;;;11.60;99.90;;;;;;5115401;28;20092;-49
2022/10/13 00:34:56;;;;;;;;;;;11.60;99.90;;;;;;5097291;28;20055;-50
2022/10/13 00:37:24;;;;;;;9.60;3.90;;;11.60;99.90;;;;;;5115544;28;19924;-50
2022/10/13 00:39:50;;;;;;;10.68;4.10;;;11.50;99.90;;;;;;5114735;28;20336;-50
2022/10/13 00:42:22;;;;;;;12.10;4.53;;;11.60;99.90;;;;;;5115275;28;20032;-50
2022/10/13 00:45:16;;;;;;;23.10;4.72;;;11.60;99.90;;;;;;5112808;28;20112;-50
2022/10/13 00:47:47;;;;;;;16.08;5.55;;;11.60;99.90;;;;;;5105837;28;20092;-50
2022/10/13 00:50:17;;;;;;;15.88;4.25;;;11.60;99.90;;;;;;5114455;28;20079;-50
2022/10/13 00:52:46;;;;;;;8.43;4.45;;;11.50;99.90;;;;;;5111489;28;20039;-50
2022/10/13 00:55:18;;;;;;;13.00;4.28;;;11.60;99.90;;;;;;5112616;28;20036;-50
2022/10/13 00:57:46;;;;;;;11.25;4.10;;;11.60;99.90;;;;;;5114527;28;20645;-50
2022/10/13 01:00:13;;;;;;;8.85;3.67;;;11.60;99.90;;;;;;5114430;28;20070;-51
2022/10/13 01:02:40;;;;;;;7.90;4.60;;;11.60;99.90;;;;;;5114573;28;20039;-50
2022/10/13 01:05:07;;;;;;;15.35;4.10;;;11.50;99.90;;;;;;5109138;28;20546;-49
2022/10/13 01:07:35;;;;;;;10.65;4.35;;;11.50;99.90;;;;;;5114823;28;20031;-51
2022/10/13 01:10:02;;;;;;;9.07;5.68;;;11.50;99.90;;;;;;5114651;28;20143;-50
2022/10/13 01:12:43;;;;;;;18.85;8.27;;;11.50;99.90;;;;;;5114959;28;20040;-49
2022/10/13 01:15:22;;;;;;;14.55;7.47;;;11.50;99.90;;;;;;5113857;28;20039;-50
2022/10/13 01:17:57;;;;;;;12.63;7.25;;;11.50;99.90;;;;;;5114841;28;20075;-49
2022/10/13 01:20:54;;;;;;;18.98;6.65;;;11.50;99.90;;;;;;5114386;28;20064;-51
2022/10/13 01:23:41;;;;;;;14.15;6.32;;;11.50;99.90;;;;;;5113054;28;20114;-52
2022/10/13 01:26:44;;;;;;;12.02;6.30;;;11.60;99.90;;;;;;5114219;28;20039;-49
2022/10/13 01:29:44;;;;;;;11.30;5.18;;;11.60;99.90;;;;;;5113703;28;20063;-49
2022/10/13 01:32:28;;;;;;;14.77;6.65;;;11.60;99.90;;;;;;5111376;28;20067;-49
2022/10/13 01:35:25;;;;;;;11.73;6.07;;;11.60;99.90;;;;;;5113305;28;20509;-50
2022/10/13 01:37:51;;;;;;;11.07;6.18;;;11.60;99.90;;;;;;5114475;28;20075;-49
2022/10/13 01:40:38;;;;;;;10.38;5.93;;;11.60;99.90;;;;;;5113469;28;20036;-49
2022/10/13 01:43:19;;;;;;;11.45;5.20;;;11.60;99.90;;;;;;5114157;28;20484;-50
2022/10/13 01:45:57;;;;;;;10.02;4.93;;;11.60;99.90;;;;;;5112523;28;20057;-50
2022/10/13 01:48:25;;;;;;;13.55;5.80;;;11.50;99.90;;;;;;5092375;28;20643;-49
2022/10/13 01:50:53;;;;;;;11.52;5.80;;;11.50;99.90;;;;;;5092645;28;20080;-49
2022/10/13 01:53:20;;;;;;;10.18;5.15;;;11.60;99.90;;;;;;5092570;28;20043;-49
2022/10/13 01:55:54;;;;;;;11.65;5.25;;;11.60;99.90;;;;;;5107756;28;20066;-50
2022/10/13 01:58:23;;;;;;;11.95;5.00;;;11.60;99.90;;;;;;5095792;28;20055;-49
2022/10/13 02:01:12;;;;;;;13.32;6.00;;;11.60;99.90;;;;;;5113537;28;20056;-51
2022/10/13 02:04:10;;;;;;;13.60;6.93;;;11.70;99.90;;;;;;5111928;28;20043;-50
2022/10/13 02:06:54;;;;;;;21.02;7.60;;;11.70;99.90;;;;;;5113817;28;20108;-49
2022/10/13 02:09:29;;;;;;;14.70;7.13;;;11.70;99.90;;;;;;5112987;28;20100;-50
2022/10/13 02:12:05;;;;;;;16.95;7.65;;;11.80;99.90;;;;;;5112409;28;20086;-50
2022/10/13 02:14:36;;;;;;;17.15;6.53;;;11.70;99.90;;;;;;5104948;28;20035;-50
2022/10/13 02:17:04;;;;;;;12.73;6.25;;;11.70;99.90;;;;;;5111061;28;20043;-51
2022/10/13 02:19:36;;;;;;;17.27;7.25;;;11.70;99.90;;;;;;5105158;28;20039;-48
2022/10/13 02:22:04;;;;;;;18.15;7.88;;;11.70;99.90;;;;;;5112704;28;20116;-48
2022/10/13 02:24:32;;;;;;;17.95;7.43;;;11.60;99.90;;;;;;5112970;28;20092;-51
2022/10/13 02:26:58;;;;;;;13.23;7.72;;;11.70;99.90;;;;;;5109881;28;20052;-50
2022/10/13 02:29:25;;;;;;;17.98;7.10;;;11.60;99.90;;;;;;5113229;28;20076;-50
2022/10/13 02:31:53;;;;;;;17.35;7.85;;;11.70;99.90;;;;;;5112949;28;20075;-51
2022/10/13 02:34:20;;;;;;;12.80;7.40;;;11.60;99.90;;;;;;5112916;28;20045;-50
2022/10/13 02:36:47;;;;;;;14.30;7.30;;;11.70;99.90;;;;;;5110010;28;20071;-51
2022/10/13 02:39:14;;;;;;;16.83;8.15;;;11.60;99.90;;;;;;5113019;28;20071;-51
2022/10/13 02:41:41;;;;;;;12.15;6.63;;;11.60;99.90;;;;;;5094601;28;20070;-51
2022/10/13 02:44:07;;;;;;;13.95;5.50;;;11.70;99.90;;;;;;5112126;28;20088;-50
2022/10/13 02:46:40;;;;;;;7.25;3.83;;;11.70;99.90;;;;;;5110925;28;20042;-51
2022/10/13 02:49:06;;;;;;;;;;;11.60;99.90;;;;;;5112563;28;20047;-53
2022/10/13 02:51:33;;;;;;;6.90;3.85;;;11.60;99.90;;;;;;5112434;28;19923;-51
2022/10/13 02:54:05;;;;;;;11.10;4.63;;;11.40;99.90;;;;;;5111229;28;20066;-50
2022/10/13 02:56:32;;;;;;;9.82;4.05;;;11.40;99.90;;;;;;5112924;28;20453;-50
2022/10/13 02:58:59;;;;;;;9.98;4.40;;;11.40;99.90;;;;;;5109912;28;20067;-49
2022/10/13 03:01:25;;;;;;;6.80;4.18;;;11.30;99.90;;;;;;5127332;22;20468;-45
2022/10/13 03:03:52;;;;;;;7.97;4.10;;;11.30;99.90;;;;;;5123255;27;20096;-47
2022/10/13 03:06:19;;;;;;;10.60;4.63;;;11.30;99.90;;;;;;5130434;27;20103;-47
2022/10/13 03:08:46;;;;;;;11.52;5.43;;;11.30;99.90;;;;;;5127850;27;20040;-49
2022/10/13 03:11:13;;;;;;;11.98;5.10;;;11.30;99.90;;;;;;5140739;27;20088;-47
2022/10/13 03:13:39;;;;;;;9.65;4.78;;;11.30;99.90;;;;;;5153784;27;20639;-47
2022/10/13 03:16:06;;;;;;;9.80;4.88;;;11.40;99.90;;;;;;5153515;27;20047;-47
2022/10/13 03:18:33;;;;;;;6.45;3.85;;;11.40;99.90;;;;;;5146925;27;20038;-47
2022/10/13 03:21:03;;;;;;;12.13;4.35;;;11.30;99.90;;;;;;5141276;27;20039;-47
2022/10/13 03:23:30;;;;;;;8.38;3.63;;;11.30;99.90;;;;;;5150011;27;20039;-47
2022/10/13 03:25:58;;;;;;;10.38;4.00;;;11.20;99.90;;;;;;5153141;27;20064;-47
2022/10/13 03:28:24;;;;;;;;;;;11.20;99.90;;;;;;5145884;27;20598;-47
2022/10/13 03:31:09;;;;;;;13.65;5.35;;;11.20;99.90;;;;;;5146837;27;19962;-48
2022/10/13 03:33:36;;;;;;;9.35;4.45;;;11.20;99.90;;;;;;5135634;27;20159;-49
2022/10/13 03:36:04;;;;;;;9.13;4.57;;;11.20;99.90;;;;;;5142159;27;20062;-48
2022/10/13 03:38:32;;;;;;;11.27;5.30;;;11.10;99.90;;;;;;5142393;27;20494;-47
2022/10/13 03:41:07;;;;;;;11.55;4.68;;;11.10;99.90;;;;;;5151796;27;20042;-47
2022/10/13 03:43:34;;;;;;;12.30;4.75;;;11.10;99.90;;;;;;5139747;27;20069;-48
2022/10/13 03:46:03;;;;;;;9.98;4.38;;;11.10;99.90;;;;;;5142955;27;20066;-47
2022/10/13 03:48:30;;;;;;;16.48;4.80;;;11.00;99.90;;;;;;5142873;27;20066;-48
2022/10/13 03:50:57;;;;;;;12.02;4.63;;;11.00;99.90;;;;;;5141209;27;20035;-48
2022/10/13 03:53:24;;;;;;;12.25;4.97;;;11.00;99.90;;;;;;5150029;27;20078;-47
2022/10/13 03:55:55;;;;;;;7.80;4.57;;;10.90;99.90;;;;;;5148767;27;20050;-47
2022/10/13 03:58:23;;;;;;;16.10;4.25;;;10.90;99.90;;;;;;5147296;27;20038;-48
2022/10/13 04:00:52;;;;;;;12.57;4.82;;;10.90;99.90;;;;;;5142301;27;20445;-48
2022/10/13 04:03:19;;;;;;;14.60;7.15;;;10.90;99.90;;;;;;5150973;27;20073;-48
2022/10/13 04:05:46;;;;;;;11.20;5.10;;;10.90;99.90;;;;;;5145690;27;20042;-47
2022/10/13 04:08:13;;;;;;;12.70;6.45;;;10.90;99.90;;;;;;5133880;27;20573;-51
2022/10/13 04:10:41;;;;;;;10.38;5.38;;;10.90;99.90;;;;;;5149284;27;20076;-48
2022/10/13 04:13:07;;;;;;;16.08;6.55;;;11.00;99.90;;;;;;5140158;27;20462;-47
2022/10/13 04:15:38;;;;;;;12.75;5.80;;;11.00;99.90;;;;;;5147915;27;20036;-48
2022/10/13 04:18:06;;;;;;;14.57;5.80;;;11.10;99.90;;;;;;5137813;27;20051;-49
2022/10/13 04:20:38;;;;;;;16.17;5.50;;;11.00;99.90;;;;;;5134223;27;20066;-48
2022/10/13 04:23:06;;;;;;;12.75;6.25;;;11.10;99.90;;;;;;5141465;27;20506;-48
2022/10/13 04:25:36;;;;;;;11.75;6.07;;;11.10;99.90;;;;;;5147492;27;20122;-48
2022/10/13 04:28:05;;;;;;;13.00;7.43;;;11.10;99.90;;;;;;5148896;27;20063;-47
2022/10/13 04:30:35;;;;;;;22.13;8.27;;;11.20;99.90;;;;;;5146563;27;21073;-47
2022/10/13 04:33:02;;;;;;;18.33;8.32;;;11.20;99.90;;;;;;5147754;27;20075;-48
2022/10/13 04:35:29;;;;;;;13.63;6.43;;;11.30;99.90;;;;;;5150891;27;20095;-50
2022/10/13 04:37:56;;;;;;;13.57;6.22;;;11.30;99.90;;;;;;5143791;27;20466;-48
2022/10/13 04:40:24;;;;;;;19.08;5.45;;;11.30;99.90;;;;;;5142416;27;20053;-48
2022/10/13 04:42:51;;;;;;;12.60;5.82;;;11.20;99.90;;;;;;5131758;28;20063;-47
2022/10/13 04:45:18;;;;;;;15.27;6.25;;;11.30;99.90;;;;;;5133404;27;20058;-49
2022/10/13 04:47:48;;;;;;;13.50;7.20;;;11.30;99.90;;;;;;5152429;27;20231;-47
2022/10/13 04:50:17;;;;;;;15.05;6.18;;;11.30;99.90;;;;;;5152647;27;20054;-47
2022/10/13 04:52:46;;;;;;;7.68;4.55;;;11.30;99.90;;;;;;5145836;27;20078;-49
2022/10/13 04:55:13;;;;;;;17.42;7.68;;;11.30;99.90;;;;;;5147822;27;20547;-48
2022/10/13 04:57:39;;;;;;;15.32;7.80;;;11.30;99.90;;;;;;5134803;27;20043;-47
2022/10/13 05:00:07;;;;;;;13.80;7.38;;;11.30;99.90;;;;;;5147374;27;20066;-48
2022/10/13 05:02:34;;;;;;;;;;;11.30;99.90;;;;;;5150094;27;20042;-47
2022/10/13 05:05:02;;;;;;;18.35;8.15;;;11.30;99.90;;;;;;5151046;27;19925;-48
2022/10/13 05:07:30;;;;;;;12.60;6.57;;;11.30;99.90;;;;;;5151034;27;20490;-47
2022/10/13 05:09:57;;;;;;;14.82;7.32;;;11.30;99.90;;;;;;5139703;27;20043;-48
2022/10/13 05:12:24;;;;;;;19.30;8.13;;;11.30;99.90;;;;;;5154313;27;20058;-48
2022/10/13 05:14:51;;;;;;;13.02;6.82;;;11.30;99.90;;;;;;5150242;27;20403;-48
2022/10/13 05:17:17;;;;;;;16.92;7.85;;;11.40;99.90;;;;;;5155860;27;20063;-48
2022/10/13 05:19:44;;;;;;;12.85;4.63;;;11.30;99.90;;;;;;5144374;27;20063;-48
2022/10/13 05:22:11;;;;;;;12.77;5.50;;;11.30;99.90;;;;;;5150913;27;20522;-49
2022/10/13 05:24:40;;;;;;;15.23;6.25;;;11.20;99.90;;;;;;5149726;27;20047;-48
2022/10/13 05:27:11;;;;;;;15.05;5.20;;;11.30;99.90;;;;;;5151314;27;20142;-47
2022/10/13 05:29:39;;;;;;;9.60;4.88;;;11.20;99.90;;;;;;5150444;27;20071;-48
2022/10/13 05:32:07;;;;;;;7.40;4.43;;;11.30;99.90;;;;;;5148372;27;20554;-49
2022/10/13 05:34:33;;;;;;;8.48;4.47;;;11.10;99.90;;;;;;5152999;27;20043;-48
2022/10/13 05:37:00;;;;;;;14.05;4.05;;;11.10;99.90;;;;;;5153803;27;20095;-47
2022/10/13 05:39:27;;;;;;;10.13;4.30;;;11.10;99.90;;;;;;5152610;27;20026;-47
2022/10/13 05:41:54;;;;;;;10.90;4.07;;;11.10;99.90;;;;;;5148898;27;20548;-51
2022/10/13 05:44:21;;;;;;;7.30;5.25;;;11.10;99.90;;;;;;5154583;27;20105;-49
2022/10/13 05:46:54;;;;;;;9.88;4.18;;;11.00;99.90;;;;;;5154223;27;20444;-48
2022/10/13 05:49:21;;;;;;;;;;;11.10;99.90;;;;;;5147352;27;20051;-47
2022/10/13 05:51:51;;;;;;;14.63;4.80;;;11.10;99.90;;;;;;5154752;27;19919;-48
2022/10/13 05:54:25;;;;;;;10.43;4.78;;;11.10;99.90;;;;;;5154771;27;20510;-48
2022/10/13 05:57:06;;;;;;;17.92;5.68;;;11.10;99.90;;;;;;5152780;27;20087;-48
2022/10/13 05:59:41;;;;;;;14.10;6.47;;;11.10;99.90;;;;;;5146525;27;20550;-47
2022/10/13 06:02:13;;;;;;;16.20;6.78;;;11.20;99.90;;;;;;5154516;27;20115;-47
2022/10/13 06:04:45;;;;;;;16.83;6.63;;;11.20;99.90;;;;;;5154202;27;20070;-47
2022/10/13 06:07:12;;;;;;;13.60;7.70;;;11.20;99.90;;;;;;5151184;27;20099;-47
2022/10/13 06:09:40;;;;;;;13.18;8.18;;;11.30;99.90;;;;;;5154586;27;20066;-49
2022/10/13 06:12:08;;;;;;;17.90;8.27;;;11.40;99.90;;;;;;5154213;27;20070;-48
2022/10/13 06:14:36;;;;;;;14.20;7.78;;;11.30;99.90;;;;;;5145395;27;20051;-48
2022/10/13 06:17:05;;;;;;;22.02;7.93;;;11.40;99.90;;;;;;5154539;27;20469;-48
2022/10/13 06:19:32;;;;;;;;;;;11.40;99.90;;;;;;5148705;27;20038;-50
2022/10/13 06:22:06;;;;;;;17.13;8.00;;;11.50;99.90;;;;;;5136193;27;19965;-48
2022/10/13 06:24:32;;;;;;;21.15;9.30;;;11.60;99.90;;;;;;5147931;27;20486;-47
2022/10/13 06:26:59;;;;;;;20.13;9.50;;;11.50;99.90;;;;;;5155007;27;20068;-49
2022/10/13 06:29:26;;;;;;;20.58;10.73;;;11.50;99.90;;;;;;5152549;27;20047;-48
2022/10/13 06:31:53;;;;;;;23.15;11.35;;;11.60;99.90;;;;;;5154275;27;20043;-48
2022/10/13 06:34:19;;;;;;;24.20;10.63;;;11.60;99.90;;;;;;5153887;27;20473;-48
2022/10/13 06:36:46;;;;;;;18.10;9.85;;;11.60;99.90;;;;;;5147696;27;20150;-48
2022/10/13 06:39:13;;;;;;;16.45;7.97;;;11.70;99.90;;;;;;5154285;27;20050;-48
2022/10/13 06:41:40;;;;;;;18.50;9.43;;;11.70;99.90;;;;;;5154138;27;20043;-47
2022/10/13 06:44:06;;;;;;;19.63;8.85;;;11.70;99.90;;;;;;5147429;27;20046;-48
2022/10/13 06:46:33;;;;;;;18.88;9.32;;;11.90;99.90;;;;;;5154000;27;20151;-49
2022/10/13 06:49:00;;;;;;;17.05;9.50;;;11.90;99.90;;;;;;5154204;27;20035;-48
2022/10/13 06:51:28;;;;;;;15.52;7.65;;;12.00;99.90;;;;;;5146627;27;20030;-50
2022/10/13 06:53:56;;;;;;;15.45;7.65;;;12.00;99.90;;;;;;5144381;27;20078;-47
2022/10/13 06:56:24;;;;;;;19.95;8.43;;;11.90;99.90;;;;;;5142756;27;20027;-47
2022/10/13 06:58:51;;;;;;;12.80;7.60;;;12.00;99.90;;;;;;5138328;27;20104;-49
2022/10/13 07:01:18;;;;;;;15.30;8.18;;;12.00;99.90;;;;;;5132630;27;20395;-49
2022/10/13 07:03:50;;;;;;;18.13;8.75;;;12.00;99.90;;;;;;5132559;27;20453;-47
2022/10/13 07:06:19;;;;;;;12.75;7.95;;;12.10;99.90;;;;;;5145672;27;20070;-48
2022/10/13 07:08:48;;;;;;;16.20;7.70;;;12.10;99.90;;;;;;5138887;27;20077;-48
2022/10/13 07:11:17;;;;;;;13.23;7.53;;;12.20;99.90;;;;;;5143492;27;20457;-48
2022/10/13 07:13:48;;;;;;;15.27;7.35;;;12.30;99.90;;;;;;5145192;27;20108;-47
2022/10/13 07:16:16;;;;;;;11.40;6.35;;;12.40;99.90;;;;;;5145019;27;20065;-49
2022/10/13 07:18:45;;;;;;;15.43;7.60;;;12.60;99.90;;;;;;5141842;27;20436;-48
2022/10/13 07:21:12;;;;;;;17.92;7.20;;;12.80;99.90;;;;;;5141472;27;20071;-47
2022/10/13 07:23:39;;;;;;;14.82;6.93;;;13.00;99.90;;;;;;5139026;27;20039;-47
2022/10/13 07:26:07;;;;;;;14.20;7.45;;;13.10;99.90;;;;;;5142923;27;20043;-49
2022/10/13 07:28:34;;;;;;;14.48;6.88;;;13.20;99.90;;;;;;5137845;27;20066;-50
2022/10/13 07:31:07;;;;;;;17.33;7.20;;;13.20;99.90;;;;;;5140337;27;20100;-48
2022/10/13 07:33:36;;;;;;;11.15;6.43;;;13.30;99.90;;;;;;5139293;27;20035;-47
2022/10/13 07:36:04;;;;;;;15.68;7.28;;;13.40;99.90;;;;;;5138512;27;20043;-47
2022/10/13 07:38:31;;;;;;;16.80;7.80;;;13.10;99.90;;;;;;5149484;27;20038;-50
2022/10/13 07:41:02;;;;;;;15.77;7.05;;;13.20;99.90;;;;;;5143093;27;20068;-48
2022/10/13 07:43:28;;;;;;;12.82;7.00;;;13.20;99.90;;;;;;5149182;27;20061;-48
2022/10/13 07:46:03;;;;;;;10.32;5.88;;;13.20;99.90;;;;;;5152727;27;20087;-47
2022/10/13 07:48:31;;;;;;;9.45;6.57;;;13.30;99.90;;;;;;5147084;27;20392;-48
2022/10/13 07:51:09;;;;;;;16.45;6.82;;;13.50;99.90;;;;;;5148493;27;20509;-49
2022/10/13 07:53:36;;;;;;;9.43;6.20;;;13.60;99.90;;;;;;5131183;27;20085;-49
2022/10/13 07:56:05;;;;;;;17.40;7.63;;;14.10;99.90;;;;;;5132112;27;20043;-48
2022/10/13 07:58:33;;;;;;;11.13;6.28;;;14.20;99.90;;;;;;5136253;27;20077;-48
2022/10/13 08:01:00;;;;;;;11.48;6.03;;;14.10;99.90;;;;;;5150769;27;20539;-48
2022/10/13 08:03:29;;;;;;;15.38;7.10;;;14.00;99.90;;;;;;5133579;27;20477;-49
2022/10/13 08:05:58;;;;;;;16.10;5.93;;;14.00;99.90;;;;;;5152611;27;20066;-47
2022/10/13 08:08:26;;;;;;;12.90;5.78;;;14.00;99.90;;;;;;5146409;27;20078;-47
2022/10/13 08:10:53;;;;;;;12.55;6.93;;;14.10;99.90;;;;;;5140636;27;20055;-47
2022/10/13 08:13:27;;;;;;;11.55;6.43;;;14.20;99.90;;;;;;5138394;27;20034;-51
2022/10/13 08:15:53;;;;;;;13.00;6.35;;;14.30;99.90;;;;;;5146217;27;20074;-48
2022/10/13 08:18:21;;;;;;;14.23;5.72;;;14.20;99.90;;;;;;5152533;27;20122;-48
2022/10/13 08:20:48;;;;;;;16.13;6.15;;;14.30;99.90;;;;;;5152892;27;20122;-50
2022/10/13 08:23:16;;;;;;;13.27;6.15;;;14.40;99.90;;;;;;5149428;27;20035;-49
2022/10/13 08:25:49;;;;;;;12.25;6.68;;;14.40;99.90;;;;;;5142797;27;20051;-48
2022/10/13 08:28:18;;;;;;;8.57;5.20;;;14.40;99.90;;;;;;5137509;27;20047;-48
2022/10/13 08:30:45;;;;;;;10.75;5.95;;;14.50;99.90;;;;;;5131460;27;20495;-49
2022/10/13 08:33:13;;;;;;;11.20;6.45;;;14.40;99.90;;;;;;5149909;27;20047;-48
2022/10/13 08:35:41;;;;;;;10.00;5.78;;;14.50;99.90;;;;;;5150209;27;20096;-48
2022/10/13 08:38:08;;;;;;;12.35;6.18;;;14.60;99.90;;;;;;5148523;27;20036;-50
2022/10/13 08:40:36;;;;;;;13.98;5.95;;;14.70;99.90;;;;;;5138006;27;20158;-50
2022/10/13 08:43:07;;;;;;;11.88;7.20;;;14.90;99.90;;;;;;5125480;27;20085;-49
2022/10/13 08:45:35;;;;;;;12.25;6.22;;;14.50;99.90;;;;;;5146436;27;20033;-48
2022/10/13 08:48:31;;;;;;;12.18;6.75;;;14.40;99.90;;;;;;5147994;27;20035;-48
2022/10/13 08:51:04;;;;;;;13.48;6.60;;;14.20;99.90;;;;;;5151395;27;20058;-47
2022/10/13 08:53:39;;;;;;;14.60;7.13;;;14.50;99.90;;;;;;5143531;27;20042;-47
2022/10/13 08:56:24;;;;;;;10.07;5.30;;;14.70;99.90;;;;;;5143571;27;20098;-47
2022/10/13 08:58:53;;;;;;;22.92;8.40;;;14.90;99.90;;;;;;5144949;27;20114;-47
2022/10/13 09:01:23;;;;;;;15.20;6.82;;;15.10;99.90;;;;;;5126190;22;20048;-47
2022/10/13 09:03:55;;;;;;;14.60;6.28;;;15.30;99.90;;;;;;5072463;28;20042;-47
2022/10/13 09:06:27;;;;;;;15.10;6.57;;;15.40;99.90;;;;;;5070744;28;20068;-46
2022/10/13 09:09:01;;;;;;;15.20;6.38;;;15.60;99.90;;;;;;5073845;28;20032;-47
2022/10/13 09:11:31;;;;;;;11.43;5.85;;;15.80;99.90;;;;;;5064268;28;20456;-48
2022/10/13 09:14:04;;;;;;;13.95;5.72;;;15.40;99.90;;;;;;5063073;28;20567;-46
2022/10/13 09:16:42;;;;;;;16.67;6.65;;;15.60;99.90;;;;;;5066215;28;20076;-47
2022/10/13 09:19:21;;;;;;;9.25;5.85;;;15.80;99.90;;;;;;5071485;28;20049;-46
2022/10/13 09:21:54;;;;;;;13.75;6.20;;;15.80;99.90;;;;;;5073079;28;20045;-47
2022/10/13 09:24:23;;;;;;;12.18;6.53;;;15.70;99.90;;;;;;5068225;28;20040;-48
2022/10/13 09:27:02;;;;;;;12.38;6.22;;;15.90;99.90;;;;;;5065439;28;20075;-48
2022/10/13 09:29:31;;;;;;;10.30;6.00;;;16.00;99.90;;;;;;5065003;28;20413;-48
2022/10/13 09:32:22;;;;;;;11.95;6.82;;;16.10;99.90;;;;;;5063931;28;20072;-46
2022/10/13 09:34:50;;;;;;;12.60;6.28;;;16.10;99.90;;;;;;5069767;28;20083;-47
2022/10/13 09:37:20;;;;;;;14.88;7.22;;;16.10;99.90;;;;;;5071319;28;20082;-47
2022/10/13 09:40:13;;;;;;;14.30;6.70;;;16.20;99.90;;;;;;5067890;28;20032;-46
2022/10/13 09:42:40;;;;;;;17.27;6.05;;;16.20;99.90;;;;;;5062085;28;20120;-47
2022/10/13 09:45:20;;;;;;;14.20;6.78;;;16.30;99.90;;;;;;5061547;28;20055;-47
2022/10/13 09:47:53;;;;;;;11.80;7.03;;;16.10;99.90;;;;;;5071893;28;20500;-47
2022/10/13 09:50:27;;;;;;;12.23;6.80;;;15.90;99.90;;;;;;5069323;28;20028;-47
2022/10/13 09:53:09;;;;;;;19.15;7.32;;;15.90;99.90;;;;;;5072236;28;20335;-48
2022/10/13 09:55:35;;;;;;;13.80;6.72;;;16.00;99.90;;;;;;5064657;28;20041;-47
2022/10/13 09:58:30;;;;;;;12.55;7.30;;;16.30;99.90;;;;;;5067912;28;20509;-47
2022/10/13 10:00:57;;;;;;;13.73;6.85;;;16.20;99.90;;;;;;5064148;28;20049;-47
2022/10/13 10:03:33;;;;;;;12.30;7.38;;;16.10;99.90;;;;;;5063271;28;20758;-48
2022/10/13 10:06:11;;;;;;;14.10;6.95;;;16.00;99.90;;;;;;5064014;28;20378;-48
2022/10/13 10:09:00;;;;;;;13.27;6.60;;;15.80;99.90;;;;;;5057631;28;20040;-47
2022/10/13 10:11:39;;;;;;;13.95;6.60;;;15.50;99.90;;;;;;5072618;28;20049;-47
2022/10/13 10:14:24;;;;;;;16.15;7.50;;;15.50;99.90;;;;;;5072842;28;20041;-49
2022/10/13 10:17:19;;;;;;;15.57;7.15;;;15.40;99.90;;;;;;5069430;28;20094;-49
2022/10/13 10:20:13;;;;;;;14.40;8.52;;;15.30;99.90;;;;;;5072827;28;20119;-47
2022/10/13 10:22:52;;;;;;;16.05;7.68;;;15.40;99.90;;;;;;5061466;28;20041;-49
2022/10/13 10:25:24;;;;;;;17.65;7.47;;;15.50;99.90;;;;;;5069049;28;20072;-50
2022/10/13 10:28:17;;;;;;;24.83;7.47;;;15.50;99.90;;;;;;5070183;28;20067;-50
2022/10/13 10:30:55;;;;;;;14.32;7.90;;;15.70;99.90;;;;;;5065435;28;20069;-47
2022/10/13 10:33:40;;;;;;;13.60;8.45;;;15.70;99.90;;;;;;5082590;28;20413;-48
2022/10/13 10:36:17;;;;;;;13.35;7.03;;;15.70;99.90;;;;;;5071133;28;20036;-47
2022/10/13 10:39:11;;;;;;;13.80;7.53;;;15.70;99.90;;;;;;5069328;28;20036;-49
2022/10/13 10:41:47;;;;;;;16.65;7.85;;;15.80;99.90;;;;;;5080523;28;20449;-47
2022/10/13 10:44:23;;;;;;;17.27;7.47;;;15.90;99.90;;;;;;5067316;28;20489;-48
2022/10/13 10:46:56;;;;;;;21.25;8.73;;;15.90;99.90;;;;;;5071074;28;20075;-47
2022/10/13 10:49:29;;;;;;;12.68;7.70;;;16.10;99.90;;;;;;5071529;28;20075;-48
2022/10/13 10:51:58;;;;;;;14.98;7.07;;;16.20;99.90;;;;;;5066055;28;20080;-47
2022/10/13 10:54:48;;;;;;;13.95;7.75;;;16.20;99.90;;;;;;5070857;28;20071;-47
2022/10/13 10:57:27;;;;;;;14.13;6.68;;;16.20;99.90;;;;;;5072081;28;20049;-47
2022/10/13 11:00:15;;;;;;;10.95;6.20;;;16.20;99.90;;;;;;5063470;28;20048;-48
2022/10/13 11:02:55;;;;;;;15.70;6.40;;;16.50;99.90;;;;;;5071789;28;20051;-47
2022/10/13 11:05:22;;;;;;;13.30;6.45;;;16.50;99.90;;;;;;5071848;28;20041;-50
2022/10/13 11:07:52;;;;;;;13.05;6.43;;;16.60;99.90;;;;;;5066498;28;20049;-47
2022/10/13 11:10:20;;;;;;;14.77;6.72;;;16.70;99.90;;;;;;5067967;28;20068;-48
2022/10/13 11:12:51;;;;;;;13.13;6.95;;;16.60;99.90;;;;;;5064243;28;20036;-47
2022/10/13 11:15:22;;;;;;;12.70;6.68;;;16.60;99.90;;;;;;5077020;28;20464;-48
2022/10/13 11:17:50;;;;;;;13.00;6.10;;;16.60;99.90;;;;;;5067210;28;20090;-47
2022/10/13 11:20:19;;;;;;;9.55;6.07;;;16.70;99.90;;;;;;5067073;28;20028;-48
2022/10/13 11:22:58;;;;;;;14.85;5.90;;;16.90;99.90;;;;;;5070870;28;20037;-47
2022/10/13 11:25:34;;;;;;;13.52;5.90;;;17.00;99.90;;;;;;5070945;28;20040;-49
2022/10/13 11:28:21;;;;;;;9.40;5.88;;;17.00;99.90;;;;;;5065441;28;20075;-47
2022/10/13 11:30:49;;;;;;;13.45;6.18;;;17.00;99.90;;;;;;5059380;28;20412;-48
2022/10/13 11:33:35;;;;;;;16.80;6.22;;;17.00;99.90;;;;;;5062266;28;20050;-47
2022/10/13 11:36:31;;;;;;;10.40;6.00;;;17.10;99.90;;;;;;5067334;28;20036;-47
2022/10/13 11:39:19;;;;;;;13.65;6.00;;;17.20;99.90;;;;;;5066626;28;20401;-48
2022/10/13 11:42:10;;;;;;;10.57;5.90;;;17.50;99.90;;;;;;5069674;28;20143;-48
2022/10/13 11:45:00;;;;;;;7.80;5.25;;;17.60;99.90;;;;;;5067859;28;20374;-48
2022/10/13 11:47:53;;;;;;;11.98;6.05;;;17.60;99.90;;;;;;5059095;28;20051;-47
2022/10/13 11:50:43;;;;;;;10.88;5.68;;;17.70;99.90;;;;;;5068558;28;20086;-47
2022/10/13 11:53:12;;;;;;;12.40;6.43;;;17.70;99.90;;;;;;5067855;28;20052;-48
2022/10/13 11:55:57;;;;;;;11.82;4.68;;;17.80;99.90;;;;;;5068020;28;20044;-47
2022/10/13 11:58:25;;;;;;;14.68;4.93;;;17.90;99.90;;;;;;5070863;28;20041;-47
2022/10/13 12:01:02;;;;;;;10.35;5.57;;;18.00;99.90;;;;;;5070616;28;20060;-49
2022/10/13 12:03:32;;;;;;;9.35;5.45;;;18.10;99.90;;;;;;5063655;28;20068;-47
2022/10/13 12:06:21;;;;;;;13.05;5.78;;;18.00;99.90;;;;;;5062016;28;20036;-48
2022/10/13 12:08:50;;;;;;;10.02;5.32;;;18.00;99.90;;;;;;5068084;28;20791;-47
2022/10/13 12:11:27;;;;;;;8.60;5.40;;;17.80;99.90;;;;;;5065078;28;20094;-47
2022/10/13 12:13:55;;;;;;;8.32;5.53;;;17.70;99.90;;;;;;5066381;28;20102;-48
2022/10/13 12:16:21;;;;;;;7.25;4.78;;;17.50;99.90;;;;;;5063948;28;20041;-49
2022/10/13 12:18:49;;;;;;;13.77;5.70;;;17.40;99.90;;;;;;5058656;28;20036;-49
2022/10/13 12:21:22;;;;;;;11.27;5.00;;;17.30;99.90;;;;;;5055307;28;20102;-47
2022/10/13 12:23:50;;;;;;;13.38;6.75;;;17.20;99.90;;;;;;5074532;28;20064;-48
2022/10/13 12:26:23;;;;;;;11.27;6.40;;;17.00;99.90;;;;;;5074150;28;20497;-48
2022/10/13 12:28:59;;;;;;;13.20;6.15;;;16.90;99.90;;;;;;5072662;28;20493;-47
2022/10/13 12:31:39;;;;;;;12.60;6.38;;;16.90;99.90;;;;;;5073749;28;20112;-48
2022/10/13 12:34:30;;;;;;;12.57;5.78;;;16.90;99.90;;;;;;5074597;28;20048;-48
2022/10/13 12:37:02;;;;;;;10.20;5.63;;;16.90;99.90;;;;;;5068441;28;20051;-48
2022/10/13 12:39:32;;;;;;;10.57;6.22;;;16.80;99.90;;;;;;5074291;28;20044;-47
2022/10/13 12:42:02;;;;;;;10.88;5.35;;;16.80;99.90;;;;;;5074408;28;20093;-47
2022/10/13 12:44:30;;;;;;;13.63;5.90;;;16.80;99.90;;;;;;5071402;28;20145;-47
2022/10/13 12:47:02;;;;;;;20.08;7.10;;;16.80;99.90;;;;;;5069912;28;20048;-48
2022/10/13 12:49:34;;;;;;;11.43;5.68;;;16.80;99.90;;;;;;5073352;28;20048;-47
2022/10/13 12:52:13;;;;;;;10.02;5.70;;;16.90;99.90;;;;;;5072123;28;20049;-47
2022/10/13 12:54:50;;;;;;;9.23;5.72;;;16.80;99.90;;;;;;5058093;28;20040;-48
2022/10/13 12:57:36;;;;;;;11.90;6.20;;;16.90;99.90;;;;;;5074422;28;20040;-47
2022/10/13 13:00:18;;;;;;;12.13;6.05;;;16.80;99.90;;;;;;5073868;28;20101;-48
2022/10/13 13:03:05;;;;;;;17.60;7.13;;;16.80;99.90;;;;;;5071059;28;20033;-48
2022/10/13 13:05:45;;;;;;;11.90;6.90;;;16.90;99.90;;;;;;5066265;28;20032;-47